Time;durP1;ratioP1;P1;durP2;ratioP2;P2;SDS_P1;SDS_P2;PMS_P1;PMS_P2;Temp;Humidity;BMP_temperature;BMP_pressure;BME280_temperature;BME280_humidity;BME280_pressure;Samples;Min_cycle;Max_cycle;Signal;HPM_P1;HPM_P2
2021/11/16 00:01:39;;;;;;;76.82;55.17;;;24.90;99.90;;;;;;4194987;28;20851;-70
2021/11/16 00:03:45;;;;;;;79.50;53.95;;;25.00;99.90;;;;;;4199383;28;20502;-69
2021/11/16 00:05:50;;;;;;;88.90;57.30;;;24.90;99.90;;;;;;4192994;28;20052;-70
2021/11/16 00:07:56;;;;;;;82.60;57.88;;;24.90;99.90;;;;;;4171509;28;20533;-71
2021/11/16 00:10:02;;;;;;;80.18;55.38;;;25.00;99.90;;;;;;4183573;28;20051;-70
2021/11/16 00:12:07;;;;;;;74.40;51.47;;;24.90;99.90;;;;;;4200958;28;20046;-69
2021/11/16 00:14:12;;;;;;;77.22;49.60;;;25.00;99.90;;;;;;4204504;28;20461;-69
2021/11/16 00:16:17;;;;;;;77.78;49.30;;;24.90;99.90;;;;;;4193306;28;20478;-70
2021/11/16 00:18:27;;;;;;;68.68;48.38;;;25.00;99.90;;;;;;4192180;28;20050;-69
2021/11/16 00:20:33;;;;;;;68.47;48.13;;;25.00;99.90;;;;;;4195427;28;20532;-68
2021/11/16 00:22:39;;;;;;;70.97;49.33;;;25.10;99.90;;;;;;4204104;28;20371;-69
2021/11/16 00:25:06;;;;;;;73.57;49.53;;;25.10;99.90;;;;;;4199885;28;20094;-69
2021/11/16 00:27:08;;;;;;;71.85;48.20;;;25.00;99.90;;;;;;4193836;28;20135;-69
2021/11/16 00:29:13;;;;;;;73.03;48.78;;;25.10;99.90;;;;;;4174350;28;20582;-70
2021/11/16 00:31:21;;;;;;;74.78;49.03;;;25.20;99.90;;;;;;4198531;28;20798;-71
2021/11/16 00:33:31;;;;;;;73.80;46.65;;;25.20;99.90;;;;;;4193966;28;20044;-70
2021/11/16 00:35:38;;;;;;;71.93;47.42;;;25.30;99.90;;;;;;4196475;28;20101;-69
2021/11/16 00:37:44;;;;;;;77.32;51.28;;;25.20;99.90;;;;;;4191129;28;20506;-69
2021/11/16 00:39:49;;;;;;;65.90;45.13;;;25.20;99.90;;;;;;4195466;28;20060;-68
2021/11/16 00:41:53;;;;;;;62.78;41.20;;;25.10;99.90;;;;;;4197356;28;20046;-69
2021/11/16 00:43:58;;;;;;;57.70;39.88;;;25.10;99.90;;;;;;4198054;28;20552;-69
2021/11/16 00:46:02;;;;;;;63.92;44.05;;;25.10;99.90;;;;;;4200931;28;20073;-68
2021/11/16 00:48:07;;;;;;;61.50;38.63;;;25.10;99.90;;;;;;4187853;28;20419;-68
2021/11/16 00:50:14;;;;;;;55.15;37.28;;;25.20;99.90;;;;;;4203561;28;20036;-68
2021/11/16 00:52:19;;;;;;;59.38;36.63;;;25.30;99.90;;;;;;4202881;28;20537;-68
2021/11/16 00:54:24;;;;;;;48.10;32.65;;;25.30;99.60;;;;;;4200522;28;20048;-69
2021/11/16 00:56:30;;;;;;;53.17;32.97;;;25.40;99.30;;;;;;4197952;28;20391;-67
2021/11/16 00:58:35;;;;;;;51.10;34.15;;;25.50;99.20;;;;;;4180664;28;20092;-67
2021/11/16 01:00:39;;;;;;;41.63;29.08;;;25.50;99.20;;;;;;4190868;28;20040;-68
2021/11/16 01:02:45;;;;;;;46.72;28.95;;;25.40;98.70;;;;;;4194934;28;20036;-67
2021/11/16 01:04:51;;;;;;;48.65;29.45;;;25.40;99.00;;;;;;4205096;28;20044;-67
2021/11/16 01:06:55;;;;;;;43.60;29.23;;;25.50;98.80;;;;;;4201005;28;20568;-68
2021/11/16 01:09:01;;;;;;;41.22;30.05;;;25.50;98.80;;;;;;4198751;28;20452;-68
2021/11/16 01:11:05;;;;;;;39.15;27.67;;;25.40;98.90;;;;;;4203146;28;20044;-68
2021/11/16 01:13:12;;;;;;;36.78;25.92;;;25.60;98.70;;;;;;4205196;28;20075;-68
2021/11/16 01:15:19;;;;;;;48.20;21.85;;;25.60;98.40;;;;;;4201117;28;20378;-69
2021/11/16 01:17:24;;;;;;;31.98;20.42;;;25.40;98.30;;;;;;4177869;28;20478;-69
2021/11/16 01:19:29;;;;;;;26.15;17.20;;;25.30;98.30;;;;;;4199046;28;20436;-69
2021/11/16 01:21:35;;;;;;;24.20;16.90;;;25.40;98.10;;;;;;4202504;28;20083;-68
2021/11/16 01:23:39;;;;;;;20.25;15.48;;;25.40;98.30;;;;;;4200869;28;20052;-69
2021/11/16 01:25:45;;;;;;;23.40;15.50;;;25.40;98.00;;;;;;4202021;28;20135;-69
2021/11/16 01:27:50;;;;;;;21.30;15.50;;;25.50;97.90;;;;;;4190513;28;20045;-66
2021/11/16 01:29:55;;;;;;;19.65;13.75;;;25.50;98.00;;;;;;4202137;28;20079;-68
2021/11/16 01:32:24;;;;;;;20.58;13.50;;;25.60;97.70;;;;;;4201251;28;20052;-67
2021/11/16 01:34:32;;;;;;;19.63;13.13;;;25.70;97.60;;;;;;4206582;28;20044;-69
2021/11/16 01:36:37;;;;;;;18.67;12.95;;;25.90;97.30;;;;;;4199323;28;20036;-68
2021/11/16 01:38:44;;;;;;;17.80;11.82;;;25.90;97.20;;;;;;4195834;28;20414;-69
2021/11/16 01:40:49;;;;;;;16.55;11.38;;;25.80;97.00;;;;;;4204113;28;20042;-69
2021/11/16 01:42:56;;;;;;;15.93;12.00;;;25.90;96.90;;;;;;4203190;28;20051;-69
2021/11/16 01:45:00;;;;;;;15.25;12.07;;;26.00;96.70;;;;;;4204607;28;20474;-69
2021/11/16 01:47:09;;;;;;;20.30;11.65;;;26.10;97.00;;;;;;4196714;28;20143;-68
2021/11/16 01:49:14;;;;;;;16.58;11.43;;;26.10;97.00;;;;;;4198116;28;20131;-68
2021/11/16 01:51:20;;;;;;;14.05;11.07;;;26.20;96.80;;;;;;4184762;28;20060;-68
2021/11/16 01:53:25;;;;;;;15.48;11.93;;;26.10;96.90;;;;;;4183586;28;20256;-68
2021/11/16 01:55:30;;;;;;;17.92;11.65;;;26.10;96.70;;;;;;4202635;28;20062;-68
2021/11/16 01:57:34;;;;;;;20.33;12.32;;;26.10;97.20;;;;;;4178617;28;20084;-68
2021/11/16 01:59:39;;;;;;;14.20;10.07;;;26.20;96.60;;;;;;4197202;28;20049;-68
2021/11/16 02:01:43;;;;;;;14.57;10.07;;;26.20;96.30;;;;;;4201116;28;20446;-68
2021/11/16 02:03:49;;;;;;;13.77;9.27;;;26.30;96.10;;;;;;4202959;28;20044;-68
2021/11/16 02:05:55;;;;;;;11.43;8.85;;;26.40;95.90;;;;;;4202098;28;20048;-69
2021/11/16 02:07:59;;;;;;;11.20;8.48;;;26.40;95.60;;;;;;4189602;28;20231;-69
2021/11/16 02:10:05;;;;;;;12.43;8.70;;;26.40;95.60;;;;;;4186196;28;20040;-68
2021/11/16 02:12:10;;;;;;;10.65;8.88;;;26.40;95.50;;;;;;4201401;28;20517;-68
2021/11/16 02:14:16;;;;;;;14.13;9.30;;;26.50;95.40;;;;;;4166018;28;20053;-69
2021/11/16 02:16:21;;;;;;;12.35;9.35;;;26.50;95.80;;;;;;4196991;28;20056;-68
2021/11/16 02:18:26;;;;;;;11.48;9.02;;;26.60;95.50;;;;;;4188937;28;20040;-68
2021/11/16 02:20:31;;;;;;;10.38;8.55;;;26.60;95.60;;;;;;4199545;28;20048;-68
2021/11/16 02:22:36;;;;;;;12.45;8.38;;;26.70;95.40;;;;;;4200573;28;20044;-68
2021/11/16 02:24:41;;;;;;;11.48;8.10;;;26.70;95.10;;;;;;4197739;28;20072;-68
2021/11/16 02:26:46;;;;;;;10.63;8.63;;;26.60;94.80;;;;;;4195516;28;20057;-68
2021/11/16 02:28:50;;;;;;;12.90;8.48;;;26.40;94.80;;;;;;4193905;28;20076;-68
2021/11/16 02:30:55;;;;;;;18.17;8.43;;;26.40;95.30;;;;;;4202623;28;20048;-68
2021/11/16 02:33:00;;;;;;;74.40;12.10;;;26.50;95.00;;;;;;4200745;28;20860;-67
2021/11/16 02:35:07;;;;;;;50.22;10.18;;;26.70;95.00;;;;;;4203303;28;20040;-67
2021/11/16 02:37:12;;;;;;;27.65;10.70;;;26.80;94.90;;;;;;4194635;28;20072;-66
2021/11/16 02:39:16;;;;;;;24.08;9.10;;;26.90;94.80;;;;;;4200814;28;20075;-69
2021/11/16 02:41:22;;;;;;;15.07;8.60;;;27.00;94.30;;;;;;4198262;28;20048;-69
2021/11/16 02:43:30;;;;;;;13.80;8.13;;;26.90;94.40;;;;;;4182411;28;20048;-68
2021/11/16 02:45:34;;;;;;;9.50;6.47;;;27.00;94.40;;;;;;4198534;28;20572;-68
2021/11/16 02:47:39;;;;;;;10.10;6.53;;;27.00;93.90;;;;;;4173462;28;20045;-68
2021/11/16 02:49:43;;;;;;;9.45;6.63;;;27.10;94.00;;;;;;4182105;28;20811;-68
2021/11/16 02:51:48;;;;;;;8.60;6.03;;;27.20;93.90;;;;;;4201642;28;20044;-67
2021/11/16 02:53:53;;;;;;;7.13;5.57;;;27.20;93.90;;;;;;4200132;28;20411;-67
2021/11/16 02:55:59;;;;;;;8.90;6.00;;;27.20;93.70;;;;;;4202091;28;20383;-67
2021/11/16 02:58:04;;;;;;;10.65;5.47;;;27.30;93.50;;;;;;4187954;28;20052;-67
2021/11/16 03:00:16;;;;;;;8.80;5.43;;;27.40;93.40;;;;;;4205424;28;20044;-67
2021/11/16 03:02:21;;;;;;;7.00;5.32;;;27.40;93.20;;;;;;4192004;28;20131;-66
2021/11/16 03:04:33;;;;;;;7.93;5.78;;;27.50;93.50;;;;;;4196260;28;20044;-67
2021/11/16 03:06:37;;;;;;;7.15;5.28;;;27.50;93.10;;;;;;4195910;28;20052;-67
2021/11/16 03:08:44;;;;;;;7.18;5.00;;;27.60;93.10;;;;;;4195610;28;20130;-67
2021/11/16 03:10:50;;;;;;;7.43;4.70;;;27.50;93.40;;;;;;4197683;28;20068;-66
2021/11/16 03:12:55;;;;;;;6.18;5.40;;;27.50;93.20;;;;;;4199449;28;20565;-66
2021/11/16 03:15:00;;;;;;;7.90;4.82;;;27.50;93.20;;;;;;4203517;28;20050;-66
2021/11/16 03:17:04;;;;;;;8.48;4.82;;;27.50;93.50;;;;;;4193983;28;20560;-65
2021/11/16 03:19:09;;;;;;;7.57;5.13;;;27.50;93.20;;;;;;4198883;28;20158;-66
2021/11/16 03:21:15;;;;;;;12.90;4.95;;;27.60;93.20;;;;;;4202619;28;20036;-66
2021/11/16 03:23:22;;;;;;;7.13;5.57;;;27.60;93.20;;;;;;4202123;28;20044;-67
2021/11/16 03:25:29;;;;;;;8.35;5.90;;;27.60;93.30;;;;;;4206495;28;20047;-66
2021/11/16 03:27:38;;;;;;;9.13;5.75;;;27.60;93.20;;;;;;4202581;28;20135;-66
2021/11/16 03:29:48;;;;;;;7.25;5.45;;;27.60;93.20;;;;;;4203328;28;20083;-66
2021/11/16 03:32:06;;;;;;;7.38;5.57;;;27.60;93.20;;;;;;4204494;28;20048;-67
2021/11/16 03:34:10;;;;;;;7.63;5.60;;;27.60;93.10;;;;;;4185474;28;20036;-66
2021/11/16 03:36:16;;;;;;;11.13;6.03;;;27.70;93.10;;;;;;4203697;28;20044;-67
2021/11/16 03:38:20;;;;;;;7.60;5.53;;;27.70;93.00;;;;;;4201301;28;20445;-67
2021/11/16 03:40:26;;;;;;;7.78;5.78;;;27.80;93.00;;;;;;4202897;28;20453;-67
2021/11/16 03:42:30;;;;;;;7.70;6.00;;;27.80;93.10;;;;;;4203346;28;20067;-67
2021/11/16 03:44:38;;;;;;;7.78;5.20;;;27.80;93.20;;;;;;4203634;28;20190;-67
2021/11/16 03:46:43;;;;;;;6.95;5.57;;;27.90;93.10;;;;;;4195757;28;20492;-67
2021/11/16 03:48:47;;;;;;;9.07;5.78;;;27.90;93.20;;;;;;4207814;28;20048;-66
2021/11/16 03:50:51;;;;;;;6.32;5.10;;;28.00;93.00;;;;;;4206663;28;20036;-67
2021/11/16 03:52:57;;;;;;;7.82;5.40;;;28.10;93.00;;;;;;4208014;28;20108;-66
2021/11/16 03:55:02;;;;;;;7.63;5.55;;;28.20;92.70;;;;;;4203947;28;20076;-66
2021/11/16 03:57:06;;;;;;;9.45;5.75;;;28.10;92.60;;;;;;4202892;28;20051;-67
2021/11/16 03:59:11;;;;;;;9.45;6.18;;;28.10;92.80;;;;;;4203249;28;20446;-66
2021/11/16 04:01:16;;;;;;;6.60;5.65;;;28.20;92.60;;;;;;4201932;28;20445;-66
2021/11/16 04:03:23;;;;;;;7.43;5.95;;;28.30;92.50;;;;;;4199428;28;20041;-67
2021/11/16 04:05:28;;;;;;;9.13;5.85;;;28.30;92.40;;;;;;4203718;28;20468;-66
2021/11/16 04:07:33;;;;;;;8.95;5.38;;;28.40;92.40;;;;;;4204855;28;20410;-66
2021/11/16 04:09:37;;;;;;;9.40;6.43;;;28.50;92.10;;;;;;4204918;28;20513;-66
2021/11/16 04:11:42;;;;;;;8.45;5.20;;;28.40;92.40;;;;;;4201521;28;20448;-67
2021/11/16 04:13:46;;;;;;;10.82;5.05;;;28.40;92.00;;;;;;4175078;28;20033;-67
2021/11/16 04:15:51;;;;;;;8.50;4.72;;;28.50;92.10;;;;;;4194667;28;20048;-67
2021/11/16 04:17:56;;;;;;;7.07;4.57;;;28.60;92.40;;;;;;4204193;28;20091;-68
2021/11/16 04:20:01;;;;;;;5.85;4.35;;;28.70;92.50;;;;;;4202520;28;20040;-66
2021/11/16 04:22:05;;;;;;;7.97;4.80;;;28.80;92.50;;;;;;4189685;28;20115;-66
2021/11/16 04:24:10;;;;;;;7.03;4.95;;;28.90;92.10;;;;;;4204316;28;20041;-67
2021/11/16 04:26:14;;;;;;;6.05;4.70;;;28.90;91.60;;;;;;4200714;28;20093;-67
2021/11/16 04:28:20;;;;;;;6.78;4.32;;;28.90;91.30;;;;;;4203262;28;20569;-65
2021/11/16 04:30:25;;;;;;;5.97;4.72;;;29.00;91.30;;;;;;4205851;28;20036;-66
2021/11/16 04:32:30;;;;;;;7.57;4.57;;;29.10;91.30;;;;;;4191010;28;20044;-66
2021/11/16 04:34:34;;;;;;;6.75;4.35;;;29.10;91.40;;;;;;4207923;28;20041;-67
2021/11/16 04:36:40;;;;;;;7.55;4.60;;;29.20;91.40;;;;;;4205844;28;20048;-68
2021/11/16 04:38:45;;;;;;;7.80;4.82;;;29.30;91.50;;;;;;4204110;28;20131;-68
2021/11/16 04:40:53;;;;;;;9.45;4.32;;;29.30;91.60;;;;;;4206660;28;20052;-68
2021/11/16 04:42:58;;;;;;;5.82;4.43;;;29.20;91.80;;;;;;4173699;28;20508;-67
2021/11/16 04:45:05;;;;;;;7.72;4.47;;;29.30;91.30;;;;;;4204005;28;20617;-68
2021/11/16 04:47:11;;;;;;;5.03;4.15;;;29.40;91.10;;;;;;4205573;28;20036;-68
2021/11/16 04:49:28;;;;;;;7.47;4.00;;;29.50;91.00;;;;;;4204572;28;20575;-68
2021/11/16 05:02:54;;;;;;;5.88;3.60;;;29.80;90.70;;;;;;4207607;28;20052;-67
2021/11/16 05:04:59;;;;;;;4.40;3.42;;;29.90;90.70;;;;;;4206603;28;20052;-67
2021/11/16 05:07:14;;;;;;;6.57;3.55;;;30.00;90.50;;;;;;4205677;28;20087;-67
2021/11/16 05:09:21;;;;;;;6.50;3.70;;;29.80;90.40;;;;;;4177756;28;20126;-67
2021/11/16 05:11:26;;;;;;;5.20;3.28;;;29.70;90.50;;;;;;4188982;28;20545;-67
2021/11/16 05:13:31;;;;;;;10.27;4.03;;;29.60;90.10;;;;;;4206177;28;20558;-67
2021/11/16 05:15:37;;;;;;;6.57;3.30;;;29.60;90.50;;;;;;4206391;28;20124;-67
2021/11/16 05:17:42;;;;;;;6.63;3.60;;;29.50;90.50;;;;;;4207977;28;20047;-67
2021/11/16 05:19:46;;;;;;;4.43;3.08;;;29.40;90.30;;;;;;4204682;28;20036;-67
2021/11/16 05:21:51;;;;;;;6.18;3.30;;;29.50;90.60;;;;;;4205029;28;20052;-67
2021/11/16 05:23:57;;;;;;;5.00;3.30;;;29.50;90.80;;;;;;4205317;28;20045;-67
2021/11/16 05:26:01;;;;;;;7.70;3.50;;;29.40;90.10;;;;;;4203812;28;20056;-67
2021/11/16 05:28:11;;;;;;;9.80;3.53;;;29.40;90.70;;;;;;4203930;28;20038;-67
2021/11/16 05:30:16;;;;;;;8.55;3.28;;;29.40;90.60;;;;;;4204841;28;20037;-66
2021/11/16 05:32:20;;;;;;;3.70;2.97;;;29.30;90.50;;;;;;4206079;28;20040;-67
2021/11/16 05:34:25;;;;;;;5.93;2.95;;;29.30;90.40;;;;;;4204127;28;20070;-67
2021/11/16 05:36:29;;;;;;;5.18;3.08;;;29.40;90.30;;;;;;4204444;28;20394;-67
2021/11/16 05:38:35;;;;;;;5.97;2.90;;;29.40;90.20;;;;;;4203847;28;20585;-67
2021/11/16 05:40:40;;;;;;;4.82;2.83;;;29.40;90.20;;;;;;4203484;28;20490;-67
2021/11/16 05:42:45;;;;;;;5.80;3.30;;;29.40;90.40;;;;;;4202499;28;20062;-67
2021/11/16 05:44:50;;;;;;;7.55;3.15;;;29.50;90.40;;;;;;4187846;28;20044;-67
2021/11/16 05:46:54;;;;;;;6.47;3.38;;;29.40;90.40;;;;;;4182085;28;20047;-66
2021/11/16 05:48:59;;;;;;;5.07;3.00;;;29.40;90.30;;;;;;4203285;28;20052;-66
2021/11/16 05:51:03;;;;;;;6.03;3.08;;;29.40;90.40;;;;;;4206882;28;20505;-67
2021/11/16 05:53:08;;;;;;;3.90;2.85;;;29.40;90.50;;;;;;4205073;28;20514;-68
2021/11/16 05:55:12;;;;;;;7.38;3.13;;;29.40;90.30;;;;;;4201234;28;20467;-68
2021/11/16 05:57:17;;;;;;;5.90;3.15;;;29.40;90.40;;;;;;4202443;28;20542;-67
2021/11/16 05:59:23;;;;;;;6.88;3.38;;;29.40;90.70;;;;;;4203860;28;20044;-66
2021/11/16 06:01:30;;;;;;;5.43;3.25;;;29.40;90.40;;;;;;4203025;28;20134;-67
2021/11/16 06:03:40;;;;;;;7.47;3.13;;;29.40;90.50;;;;;;4185577;28;20049;-67
2021/11/16 06:05:44;;;;;;;7.03;3.10;;;29.50;90.30;;;;;;4201372;28;20044;-67
2021/11/16 06:07:49;;;;;;;7.60;3.03;;;29.60;90.50;;;;;;4201837;28;20046;-67
2021/11/16 06:09:54;;;;;;;5.88;3.33;;;29.60;90.30;;;;;;4188883;28;20037;-67
2021/11/16 06:11:59;;;;;;;4.20;3.08;;;29.60;90.40;;;;;;4203315;28;20437;-67
2021/11/16 06:14:04;;;;;;;5.15;3.60;;;29.60;90.30;;;;;;4201487;28;20218;-67
2021/11/16 06:16:08;;;;;;;4.53;2.85;;;29.60;90.30;;;;;;4200644;28;20044;-68
2021/11/16 06:18:13;;;;;;;5.55;2.88;;;29.50;90.20;;;;;;4189142;28;20052;-67
2021/11/16 06:20:20;;;;;;;4.75;3.08;;;29.60;90.00;;;;;;4189341;28;20052;-69
2021/11/16 06:22:24;;;;;;;4.90;3.08;;;29.60;90.10;;;;;;4204827;28;20048;-68
2021/11/16 06:24:29;;;;;;;5.75;3.53;;;29.60;90.10;;;;;;4208301;28;20131;-67
2021/11/16 06:26:33;;;;;;;4.63;2.85;;;29.60;90.30;;;;;;4202776;28;20044;-68
2021/11/16 06:28:38;;;;;;;25.83;4.05;;;29.70;90.30;;;;;;4204069;28;20052;-67
2021/11/16 06:30:42;;;;;;;8.88;3.13;;;29.70;90.20;;;;;;4203574;28;20046;-68
2021/11/16 06:32:47;;;;;;;8.55;2.97;;;29.80;90.30;;;;;;4205727;28;20053;-67
2021/11/16 06:34:52;;;;;;;6.60;2.80;;;29.80;90.30;;;;;;4205210;28;20126;-67
2021/11/16 06:36:56;;;;;;;6.90;2.97;;;29.70;90.30;;;;;;4202459;28;20067;-69
2021/11/16 06:39:12;;;;;;;6.15;3.20;;;29.80;90.40;;;;;;4185391;28;20044;-68
2021/11/16 06:41:16;;;;;;;5.15;2.88;;;29.80;90.30;;;;;;4187718;28;20143;-68
2021/11/16 06:43:31;;;;;;;7.18;2.90;;;29.90;90.30;;;;;;4204874;28;20055;-71
2021/11/16 06:45:35;;;;;;;5.60;3.00;;;29.90;90.30;;;;;;4201995;28;20051;-68
2021/11/16 06:47:39;;;;;;;4.63;2.72;;;29.90;90.40;;;;;;4204574;28;20090;-67
2021/11/16 06:49:51;;;;;;;4.43;3.13;;;29.90;90.50;;;;;;4208124;28;20040;-67
2021/11/16 06:51:57;;;;;;;3.72;2.72;;;29.90;90.50;;;;;;4203470;28;20047;-68
2021/11/16 06:54:02;;;;;;;8.02;2.80;;;29.90;90.50;;;;;;4208070;28;20127;-68
2021/11/16 06:56:07;;;;;;;4.65;2.72;;;29.90;90.60;;;;;;4204224;28;20574;-70
2021/11/16 06:58:11;;;;;;;9.20;2.97;;;29.80;90.60;;;;;;4207223;28;20071;-69
2021/11/16 07:00:16;;;;;;;3.95;2.75;;;29.90;90.60;;;;;;4206248;28;20064;-67
2021/11/16 07:02:25;;;;;;;5.63;2.78;;;29.90;90.50;;;;;;4204702;28;20391;-67
2021/11/16 07:04:39;;;;;;;6.82;3.03;;;29.90;90.50;;;;;;4205762;28;20435;-68
2021/11/16 07:06:46;;;;;;;5.03;2.92;;;30.00;90.70;;;;;;4203065;28;20584;-68
2021/11/16 07:08:54;;;;;;;5.10;2.92;;;30.10;90.40;;;;;;4185387;28;20072;-67
2021/11/16 07:11:17;;;;;;;8.98;2.72;;;30.20;90.30;;;;;;4224504;27;20435;-68
2021/11/16 07:13:21;;;;;;;7.45;2.78;;;30.20;90.20;;;;;;4224375;28;20677;-68
2021/11/16 07:15:26;;;;;;;8.23;2.72;;;30.30;89.90;;;;;;4225278;28;20112;-68
2021/11/16 07:17:31;;;;;;;4.47;2.75;;;30.30;88.90;;;;;;4208308;28;20079;-68
2021/11/16 07:19:45;;;;;;;5.30;2.75;;;30.30;89.50;;;;;;4225116;28;20048;-69
2021/11/16 07:21:52;;;;;;;5.07;2.90;;;30.30;89.50;;;;;;4224420;28;20048;-69
2021/11/16 07:24:09;;;;;;;7.85;3.20;;;30.30;90.00;;;;;;4225253;28;20040;-68
2021/11/16 07:26:15;;;;;;;4.88;2.90;;;30.20;90.10;;;;;;4218451;28;20442;-68
2021/11/16 07:28:21;;;;;;;12.57;3.25;;;30.30;89.10;;;;;;4221645;28;20055;-68
2021/11/16 07:30:28;;;;;;;12.75;7.05;;;30.30;88.90;;;;;;4222844;28;20052;-68
2021/11/16 07:32:41;;;;;;;8.25;3.33;;;30.30;88.60;;;;;;4222281;28;20075;-68
2021/11/16 07:34:46;;;;;;;9.38;3.08;;;30.40;88.40;;;;;;4224677;28;20047;-68
2021/11/16 07:36:59;;;;;;;9.57;3.15;;;30.40;88.40;;;;;;4225310;28;20375;-68
2021/11/16 07:39:04;;;;;;;5.93;2.60;;;30.50;88.70;;;;;;4225091;28;20466;-68
2021/11/16 07:41:09;;;;;;;4.55;2.78;;;30.50;88.40;;;;;;4225491;28;20060;-68
2021/11/16 07:43:17;;;;;;;6.07;2.50;;;30.50;88.60;;;;;;4223007;28;20040;-68
2021/11/16 07:45:24;;;;;;;4.72;2.60;;;30.50;88.50;;;;;;4225676;28;20071;-69
2021/11/16 07:47:53;;;;;;;5.10;2.63;;;30.50;87.40;;;;;;4207582;28;20050;-67
2021/11/16 07:49:58;;;;;;;5.43;2.83;;;30.50;87.40;;;;;;4223543;28;20081;-69
2021/11/16 07:52:02;;;;;;;4.13;2.20;;;30.40;87.70;;;;;;4224692;28;20870;-66
2021/11/16 07:54:07;;;;;;;6.10;2.58;;;30.50;87.50;;;;;;4223677;28;20068;-67
2021/11/16 07:56:23;;;;;;;4.47;2.53;;;30.40;86.60;;;;;;4216899;28;20061;-68
2021/11/16 07:58:32;;;;;;;3.67;2.50;;;30.40;87.40;;;;;;4225046;28;20578;-67
2021/11/16 08:00:39;;;;;;;4.00;2.38;;;30.40;87.60;;;;;;4222774;28;20079;-67
2021/11/16 08:02:46;;;;;;;4.00;2.70;;;30.40;87.40;;;;;;4225360;28;20517;-67
2021/11/16 08:05:10;;;;;;;4.78;2.88;;;30.40;86.90;;;;;;4221901;28;20048;-69
2021/11/16 08:11:44;;;;;;;38.55;5.10;;;30.40;87.70;;;;;;4220802;28;20099;-67
2021/11/16 08:13:54;;;;;;;21.60;3.60;;;30.40;87.70;;;;;;4222461;28;20112;-68
2021/11/16 08:16:10;;;;;;;21.08;3.83;;;30.40;87.50;;;;;;4223088;28;20403;-66
2021/11/16 08:18:15;;;;;;;9.73;3.25;;;30.40;88.20;;;;;;4225430;28;20118;-67
2021/11/16 08:20:21;;;;;;;3.75;2.80;;;30.40;87.60;;;;;;4223259;28;20101;-67
2021/11/16 08:22:25;;;;;;;4.97;2.80;;;30.40;87.50;;;;;;4214293;28;20393;-67
2021/11/16 08:24:33;;;;;;;5.22;2.58;;;30.40;88.10;;;;;;4213373;28;20048;-67
2021/11/16 08:26:47;;;;;;;4.85;2.45;;;30.50;87.60;;;;;;4212212;28;20048;-68
2021/11/16 08:28:52;;;;;;;4.68;2.88;;;30.40;86.90;;;;;;4213345;28;20039;-68
2021/11/16 08:30:57;;;;;;;5.10;2.90;;;30.40;85.90;;;;;;4209700;28;20509;-68
2021/11/16 08:33:02;;;;;;;7.70;2.65;;;30.40;86.60;;;;;;4213753;28;20052;-69
2021/11/16 08:35:25;;;;;;;4.78;2.25;;;30.40;85.40;;;;;;4211817;28;20036;-69
2021/11/16 08:37:35;;;;;;;;;;;30.40;86.60;;;;;;4212675;28;20426;-70
2021/11/16 08:39:46;;;;;;;3.13;2.25;;;30.40;86.60;;;;;;4212980;28;20007;-69
2021/11/16 08:41:51;;;;;;;2.90;2.20;;;30.40;86.90;;;;;;4209828;28;20047;-69
2021/11/16 08:44:10;;;;;;;4.53;2.45;;;30.40;86.90;;;;;;4217850;28;20036;-67
2021/11/16 08:46:18;;;;;;;4.45;2.42;;;30.40;87.30;;;;;;4213249;28;20051;-68
2021/11/16 08:48:24;;;;;;;6.97;2.58;;;30.50;87.00;;;;;;4195789;28;20032;-69
2021/11/16 08:50:38;;;;;;;6.97;3.45;;;30.40;87.10;;;;;;4212924;28;20048;-68
2021/11/16 08:52:42;;;;;;;7.72;3.30;;;30.50;87.30;;;;;;4211728;28;20035;-69
2021/11/16 08:55:04;;;;;;;5.40;2.78;;;30.50;87.30;;;;;;4213136;28;20126;-69
2021/11/16 08:57:28;;;;;;;3.92;2.90;;;30.40;87.40;;;;;;4208653;28;20074;-68
2021/11/16 08:59:36;;;;;;;15.77;3.53;;;30.40;87.20;;;;;;4212850;28;20090;-68
2021/11/16 09:01:51;;;;;;;13.40;3.50;;;30.40;87.90;;;;;;4213191;28;20131;-68
2021/11/16 09:03:56;;;;;;;6.13;2.95;;;30.30;87.90;;;;;;4213281;28;20037;-68
2021/11/16 09:06:02;;;;;;;7.00;3.10;;;30.30;88.30;;;;;;4208702;28;20543;-68
2021/11/16 09:08:11;;;;;;;4.78;2.88;;;30.30;88.00;;;;;;4212218;28;20097;-67
2021/11/16 09:10:15;;;;;;;5.80;3.15;;;30.30;87.60;;;;;;4194208;28;20541;-68
2021/11/16 09:12:51;;;;;;;6.68;2.95;;;30.20;87.90;;;;;;4208974;28;20494;-68
2021/11/16 09:14:57;;;;;;;4.28;2.63;;;30.20;88.00;;;;;;4212119;28;20123;-68
2021/11/16 09:17:11;;;;;;;3.63;2.40;;;30.30;87.80;;;;;;4212801;28;20127;-66
2021/11/16 09:19:31;;;;;;;4.65;3.03;;;30.30;87.30;;;;;;4210962;28;20456;-68
2021/11/16 09:21:38;;;;;;;4.20;2.50;;;30.30;87.20;;;;;;4209559;28;20074;-67
2021/11/16 09:23:47;;;;;;;8.18;2.58;;;30.30;87.20;;;;;;4212321;28;20048;-68
2021/11/16 09:25:53;;;;;;;5.50;3.00;;;30.30;87.10;;;;;;4210806;28;20568;-67
2021/11/16 09:28:15;;;;;;;9.07;2.85;;;30.20;87.80;;;;;;4211532;28;20119;-67
2021/11/16 09:30:30;;;;;;;6.68;2.63;;;30.20;86.60;;;;;;4212615;28;20077;-68
2021/11/16 09:32:37;;;;;;;5.40;2.92;;;30.30;87.10;;;;;;4210232;28;20051;-67
2021/11/16 09:34:46;;;;;;;10.93;3.45;;;30.30;87.20;;;;;;4209101;28;20036;-68
2021/11/16 09:37:01;;;;;;;7.47;2.90;;;30.20;87.90;;;;;;4206059;28;20044;-69
2021/11/16 09:39:11;;;;;;;5.05;3.30;;;30.20;88.20;;;;;;4207652;28;20302;-69
2021/11/16 09:41:22;;;;;;;6.13;3.33;;;30.20;88.70;;;;;;4204309;28;20565;-71
2021/11/16 09:43:27;;;;;;;7.25;4.03;;;30.20;88.80;;;;;;4205238;28;20054;-69
2021/11/16 09:45:34;;;;;;;7.75;4.03;;;30.10;89.20;;;;;;4209410;28;20093;-69
2021/11/16 09:47:39;;;;;;;8.50;4.25;;;30.10;89.20;;;;;;4208534;28;20051;-69
2021/11/16 09:49:53;;;;;;;10.18;4.28;;;30.10;89.60;;;;;;4208527;28;20096;-69
2021/11/16 09:52:18;;;;;;;16.35;5.15;;;30.00;89.30;;;;;;4207460;28;20354;-69
2021/11/16 09:54:22;;;;;;;9.57;5.43;;;30.00;89.40;;;;;;4208668;28;20562;-70
2021/11/16 09:56:29;;;;;;;10.55;7.18;;;30.00;89.60;;;;;;4208242;28;20044;-69
2021/11/16 09:58:34;;;;;;;19.80;11.90;;;30.00;89.80;;;;;;4206830;28;20048;-68
2021/11/16 10:00:40;;;;;;;19.13;11.25;;;30.00;89.90;;;;;;4207136;28;20063;-70
2021/11/16 10:02:48;;;;;;;19.60;9.65;;;29.90;90.00;;;;;;4208355;28;20040;-69
2021/11/16 10:04:54;;;;;;;16.17;8.90;;;29.90;90.00;;;;;;4207713;28;20044;-69
2021/11/16 10:06:59;;;;;;;13.70;8.85;;;29.90;89.90;;;;;;4207148;28;20071;-69
2021/11/16 10:09:04;;;;;;;16.73;11.63;;;29.90;90.00;;;;;;4208284;28;20145;-70
2021/11/16 10:11:09;;;;;;;23.00;13.63;;;29.90;90.00;;;;;;4206305;28;20101;-68
2021/11/16 10:13:21;;;;;;;25.75;17.08;;;29.90;90.00;;;;;;4207733;28;20179;-70
2021/11/16 10:15:30;;;;;;;26.42;15.98;;;29.90;90.00;;;;;;4207291;28;20135;-69
2021/11/16 10:17:35;;;;;;;29.23;18.20;;;29.80;90.00;;;;;;4207103;28;20097;-70
2021/11/16 10:19:39;;;;;;;28.35;17.73;;;29.90;90.10;;;;;;4206852;28;20036;-70
2021/11/16 10:21:43;;;;;;;18.33;12.15;;;29.90;90.10;;;;;;4207888;28;20490;-71
2021/11/16 10:23:51;;;;;;;21.85;13.38;;;29.80;90.10;;;;;;4207100;28;20047;-70
2021/11/16 10:25:55;;;;;;;19.40;12.68;;;29.80;90.10;;;;;;4207871;28;20055;-69
2021/11/16 10:28:12;;;;;;;21.38;12.30;;;29.80;90.40;;;;;;4206497;28;20079;-68
2021/11/16 10:30:19;;;;;;;18.52;10.57;;;29.80;90.30;;;;;;4207964;28;20101;-68
2021/11/16 10:32:24;;;;;;;17.60;9.88;;;29.80;90.30;;;;;;4206765;28;20047;-69
2021/11/16 10:34:42;;;;;;;20.77;13.93;;;29.70;90.40;;;;;;4208476;28;20051;-68
2021/11/16 10:36:47;;;;;;;22.25;10.40;;;29.70;90.70;;;;;;4208231;28;20048;-69
2021/11/16 10:38:57;;;;;;;13.77;9.07;;;29.60;90.80;;;;;;4206346;28;20399;-70
2021/11/16 10:41:04;;;;;;;15.40;8.70;;;29.60;91.10;;;;;;4205348;28;20079;-69
2021/11/16 10:43:09;;;;;;;19.67;8.73;;;29.50;91.20;;;;;;4207769;28;20055;-69
2021/11/16 10:45:18;;;;;;;18.75;9.30;;;29.40;91.20;;;;;;4190310;28;20430;-71
2021/11/16 10:47:35;;;;;;;16.63;8.18;;;29.40;91.30;;;;;;4206617;28;20048;-69
2021/11/16 10:49:52;;;;;;;16.98;7.57;;;29.40;91.30;;;;;;4204744;28;20078;-70
2021/11/16 10:51:57;;;;;;;18.25;7.18;;;29.30;91.50;;;;;;4208404;28;20046;-70
2021/11/16 10:54:02;;;;;;;11.98;6.53;;;29.30;91.70;;;;;;4208810;28;20043;-70
2021/11/16 10:56:10;;;;;;;16.40;5.60;;;29.30;91.60;;;;;;4208610;28;20158;-70
2021/11/16 10:58:17;;;;;;;13.30;5.45;;;29.20;91.50;;;;;;4207892;28;20050;-70
2021/11/16 11:00:54;;;;;;;14.00;5.50;;;29.20;91.70;;;;;;4205944;28;20040;-70
2021/11/16 11:03:17;;;;;;;13.48;6.10;;;29.30;91.70;;;;;;4205724;28;20047;-70
2021/11/16 11:05:33;;;;;;;14.27;5.80;;;29.30;91.60;;;;;;4206339;28;20382;-69
2021/11/16 11:07:38;;;;;;;21.05;6.30;;;29.20;91.60;;;;;;4206803;28;20040;-69
2021/11/16 11:09:43;;;;;;;21.13;7.45;;;29.30;91.60;;;;;;4207572;28;20151;-71
2021/11/16 11:11:49;;;;;;;21.30;7.95;;;29.30;91.60;;;;;;4207465;28;20097;-72
2021/11/16 11:14:15;;;;;;;15.77;6.80;;;29.30;91.70;;;;;;4208564;28;20052;-73